sensor_id;sensor_type;location;lat;lon;timestamp;P1;durP1;ratioP1;P2;durP2;ratioP2
57023;SDS011;42916;54.346;18.562;2023-07-13T00:01:49;5.00;;;3.50;;
57023;SDS011;42916;54.346;18.562;2023-07-13T00:04:18;7.70;;;4.70;;
57023;SDS011;42916;54.346;18.562;2023-07-13T00:06:47;4.80;;;4.10;;
57023;SDS011;42916;54.346;18.562;2023-07-13T00:09:14;6.40;;;3.90;;
57023;SDS011;42916;54.346;18.562;2023-07-13T00:11:43;6.30;;;3.60;;
57023;SDS011;42916;54.346;18.562;2023-07-13T00:14:11;6.60;;;3.70;;
57023;SDS011;42916;54.346;18.562;2023-07-13T00:16:38;4.60;;;3.50;;
57023;SDS011;42916;54.346;18.562;2023-07-13T00:19:07;5.50;;;3.50;;
57023;SDS011;42916;54.346;18.562;2023-07-13T00:21:34;5.80;;;3.80;;
57023;SDS011;42916;54.346;18.562;2023-07-13T00:24:01;6.30;;;4.10;;
57023;SDS011;42916;54.346;18.562;2023-07-13T00:26:28;7.00;;;4.50;;
57023;SDS011;42916;54.346;18.562;2023-07-13T00:28:55;8.70;;;4.20;;
57023;SDS011;42916;54.346;18.562;2023-07-13T00:31:22;5.40;;;4.40;;
57023;SDS011;42916;54.346;18.562;2023-07-13T00:33:49;4.30;;;3.80;;
57023;SDS011;42916;54.346;18.562;2023-07-13T00:36:17;8.60;;;3.90;;
57023;SDS011;42916;54.346;18.562;2023-07-13T00:38:47;6.20;;;4.40;;
57023;SDS011;42916;54.346;18.562;2023-07-13T00:41:13;5.30;;;3.70;;
57023;SDS011;42916;54.346;18.562;2023-07-13T00:43:40;7.60;;;4.30;;
57023;SDS011;42916;54.346;18.562;2023-07-13T00:46:29;6.00;;;4.10;;
57023;SDS011;42916;54.346;18.562;2023-07-13T00:48:59;9.30;;;4.40;;
57023;SDS011;42916;54.346;18.562;2023-07-13T00:51:51;7.70;;;4.30;;
57023;SDS011;42916;54.346;18.562;2023-07-13T00:59:25;6.50;;;4.20;;
57023;SDS011;42916;54.346;18.562;2023-07-13T01:01:52;6.60;;;4.40;;
57023;SDS011;42916;54.346;18.562;2023-07-13T01:04:23;5.30;;;4.00;;
57023;SDS011;42916;54.346;18.562;2023-07-13T01:06:51;8.70;;;6.50;;
57023;SDS011;42916;54.346;18.562;2023-07-13T01:09:18;7.50;;;6.20;;
57023;SDS011;42916;54.346;18.562;2023-07-13T01:11:47;6.60;;;5.40;;
57023;SDS011;42916;54.346;18.562;2023-07-13T01:14:14;4.50;;;3.60;;
57023;SDS011;42916;54.346;18.562;2023-07-13T01:16:44;5.60;;;4.40;;
57023;SDS011;42916;54.346;18.562;2023-07-13T01:22:04;9.70;;;4.20;;
57023;SDS011;42916;54.346;18.562;2023-07-13T01:24:38;7.20;;;5.20;;
57023;SDS011;42916;54.346;18.562;2023-07-13T01:27:07;8.10;;;4.80;;
57023;SDS011;42916;54.346;18.562;2023-07-13T01:29:36;6.00;;;4.80;;
57023;SDS011;42916;54.346;18.562;2023-07-13T01:32:11;8.10;;;4.90;;
57023;SDS011;42916;54.346;18.562;2023-07-13T01:34:41;7.10;;;4.70;;
57023;SDS011;42916;54.346;18.562;2023-07-13T01:37:11;7.20;;;4.40;;
57023;SDS011;42916;54.346;18.562;2023-07-13T01:39:39;6.60;;;4.50;;
57023;SDS011;42916;54.346;18.562;2023-07-13T01:42:06;7.20;;;4.30;;
57023;SDS011;42916;54.346;18.562;2023-07-13T01:44:33;7.80;;;4.90;;
57023;SDS011;42916;54.346;18.562;2023-07-13T01:47:00;7.50;;;4.60;;
57023;SDS011;42916;54.346;18.562;2023-07-13T01:49:28;7.10;;;4.80;;
57023;SDS011;42916;54.346;18.562;2023-07-13T01:51:54;5.90;;;4.20;;
57023;SDS011;42916;54.346;18.562;2023-07-13T01:54:21;5.70;;;4.30;;
57023;SDS011;42916;54.346;18.562;2023-07-13T01:56:50;4.90;;;4.10;;
57023;SDS011;42916;54.346;18.562;2023-07-13T01:59:17;6.00;;;4.30;;
57023;SDS011;42916;54.346;18.562;2023-07-13T02:01:44;6.30;;;4.40;;
57023;SDS011;42916;54.346;18.562;2023-07-13T02:04:11;7.90;;;4.30;;
57023;SDS011;42916;54.346;18.562;2023-07-13T02:06:37;8.30;;;4.30;;
57023;SDS011;42916;54.346;18.562;2023-07-13T02:09:04;4.60;;;4.10;;
57023;SDS011;42916;54.346;18.562;2023-07-13T02:11:32;6.70;;;5.30;;
57023;SDS011;42916;54.346;18.562;2023-07-13T02:14:00;9.20;;;4.50;;
57023;SDS011;42916;54.346;18.562;2023-07-13T02:16:30;8.80;;;4.30;;
57023;SDS011;42916;54.346;18.562;2023-07-13T02:18:57;7.30;;;4.50;;
57023;SDS011;42916;54.346;18.562;2023-07-13T02:21:24;5.90;;;4.70;;
57023;SDS011;42916;54.346;18.562;2023-07-13T02:23:52;8.50;;;5.30;;
57023;SDS011;42916;54.346;18.562;2023-07-13T02:26:19;6.30;;;5.50;;
57023;SDS011;42916;54.346;18.562;2023-07-13T02:28:46;5.60;;;5.00;;
57023;SDS011;42916;54.346;18.562;2023-07-13T02:31:14;11.90;;;5.30;;
57023;SDS011;42916;54.346;18.562;2023-07-13T02:33:42;9.30;;;4.60;;
57023;SDS011;42916;54.346;18.562;2023-07-13T02:36:10;6.20;;;4.50;;
57023;SDS011;42916;54.346;18.562;2023-07-13T02:38:37;6.80;;;4.60;;
57023;SDS011;42916;54.346;18.562;2023-07-13T02:41:05;6.50;;;4.90;;
57023;SDS011;42916;54.346;18.562;2023-07-13T02:43:33;9.80;;;4.80;;
57023;SDS011;42916;54.346;18.562;2023-07-13T02:46:00;7.40;;;4.60;;
57023;SDS011;42916;54.346;18.562;2023-07-13T02:48:33;7.20;;;4.30;;
57023;SDS011;42916;54.346;18.562;2023-07-13T02:51:01;8.10;;;4.30;;
57023;SDS011;42916;54.346;18.562;2023-07-13T02:53:28;7.80;;;5.00;;
57023;SDS011;42916;54.346;18.562;2023-07-13T02:55:55;9.10;;;5.20;;
57023;SDS011;42916;54.346;18.562;2023-07-13T02:58:22;8.30;;;4.40;;
57023;SDS011;42916;54.346;18.562;2023-07-13T03:00:48;7.60;;;4.40;;
57023;SDS011;42916;54.346;18.562;2023-07-13T03:03:17;10.20;;;4.80;;
57023;SDS011;42916;54.346;18.562;2023-07-13T03:05:45;8.70;;;4.50;;
57023;SDS011;42916;54.346;18.562;2023-07-13T03:08:17;7.60;;;4.30;;
57023;SDS011;42916;54.346;18.562;2023-07-13T03:10:45;8.90;;;4.20;;
57023;SDS011;42916;54.346;18.562;2023-07-13T03:13:13;10.90;;;4.40;;
57023;SDS011;42916;54.346;18.562;2023-07-13T03:15:39;9.70;;;4.10;;
57023;SDS011;42916;54.346;18.562;2023-07-13T03:18:06;8.90;;;3.50;;
57023;SDS011;42916;54.346;18.562;2023-07-13T03:20:33;6.30;;;4.30;;
57023;SDS011;42916;54.346;18.562;2023-07-13T03:23:01;6.70;;;4.00;;
57023;SDS011;42916;54.346;18.562;2023-07-13T03:25:30;5.90;;;3.50;;
57023;SDS011;42916;54.346;18.562;2023-07-13T03:27:56;5.70;;;3.70;;
57023;SDS011;42916;54.346;18.562;2023-07-13T03:30:23;6.30;;;4.10;;
57023;SDS011;42916;54.346;18.562;2023-07-13T03:32:50;6.30;;;3.80;;
57023;SDS011;42916;54.346;18.562;2023-07-13T03:35:17;8.70;;;3.70;;
57023;SDS011;42916;54.346;18.562;2023-07-13T03:37:44;10.30;;;3.80;;
57023;SDS011;42916;54.346;18.562;2023-07-13T03:40:15;7.20;;;4.00;;
57023;SDS011;42916;54.346;18.562;2023-07-13T03:42:43;6.50;;;3.80;;
57023;SDS011;42916;54.346;18.562;2023-07-13T03:45:10;7.30;;;3.80;;
57023;SDS011;42916;54.346;18.562;2023-07-13T03:47:37;6.80;;;4.30;;
57023;SDS011;42916;54.346;18.562;2023-07-13T03:50:04;9.40;;;4.70;;
57023;SDS011;42916;54.346;18.562;2023-07-13T03:52:32;9.40;;;4.70;;
57023;SDS011;42916;54.346;18.562;2023-07-13T03:54:59;7.40;;;4.00;;
57023;SDS011;42916;54.346;18.562;2023-07-13T03:57:26;7.80;;;4.50;;
57023;SDS011;42916;54.346;18.562;2023-07-13T03:59:52;7.70;;;3.80;;
57023;SDS011;42916;54.346;18.562;2023-07-13T04:02:20;8.50;;;4.00;;
57023;SDS011;42916;54.346;18.562;2023-07-13T04:04:47;10.20;;;4.50;;
57023;SDS011;42916;54.346;18.562;2023-07-13T04:07:13;7.30;;;3.70;;
57023;SDS011;42916;54.346;18.562;2023-07-13T04:09:40;9.90;;;4.00;;
57023;SDS011;42916;54.346;18.562;2023-07-13T04:12:07;8.70;;;3.70;;
57023;SDS011;42916;54.346;18.562;2023-07-13T04:14:34;7.60;;;3.70;;
57023;SDS011;42916;54.346;18.562;2023-07-13T04:17:00;6.40;;;3.50;;
57023;SDS011;42916;54.346;18.562;2023-07-13T04:19:27;6.20;;;3.60;;
57023;SDS011;42916;54.346;18.562;2023-07-13T04:21:54;7.50;;;3.50;;
57023;SDS011;42916;54.346;18.562;2023-07-13T04:24:21;8.90;;;4.00;;
57023;SDS011;42916;54.346;18.562;2023-07-13T04:26:47;8.90;;;3.90;;
57023;SDS011;42916;54.346;18.562;2023-07-13T04:29:14;8.60;;;4.10;;
57023;SDS011;42916;54.346;18.562;2023-07-13T04:31:41;8.90;;;3.10;;
57023;SDS011;42916;54.346;18.562;2023-07-13T04:34:08;7.10;;;3.10;;
57023;SDS011;42916;54.346;18.562;2023-07-13T04:36:35;5.20;;;2.60;;
57023;SDS011;42916;54.346;18.562;2023-07-13T04:39:03;7.20;;;3.30;;
57023;SDS011;42916;54.346;18.562;2023-07-13T04:41:30;6.20;;;3.10;;
57023;SDS011;42916;54.346;18.562;2023-07-13T04:43:57;7.50;;;3.20;;
57023;SDS011;42916;54.346;18.562;2023-07-13T04:46:24;6.60;;;3.20;;
57023;SDS011;42916;54.346;18.562;2023-07-13T04:48:51;7.50;;;3.50;;
57023;SDS011;42916;54.346;18.562;2023-07-13T04:51:19;10.20;;;3.70;;
57023;SDS011;42916;54.346;18.562;2023-07-13T04:53:46;8.70;;;3.80;;
57023;SDS011;42916;54.346;18.562;2023-07-13T04:56:13;8.70;;;2.80;;
57023;SDS011;42916;54.346;18.562;2023-07-13T04:58:40;5.80;;;2.80;;
57023;SDS011;42916;54.346;18.562;2023-07-13T05:01:06;7.50;;;3.00;;
57023;SDS011;42916;54.346;18.562;2023-07-13T05:03:35;7.50;;;2.90;;
57023;SDS011;42916;54.346;18.562;2023-07-13T05:06:06;12.30;;;2.80;;
57023;SDS011;42916;54.346;18.562;2023-07-13T05:08:36;6.80;;;2.70;;
57023;SDS011;42916;54.346;18.562;2023-07-13T05:11:03;8.70;;;3.40;;
57023;SDS011;42916;54.346;18.562;2023-07-13T05:13:32;7.50;;;2.80;;
57023;SDS011;42916;54.346;18.562;2023-07-13T05:16:00;8.20;;;2.90;;
57023;SDS011;42916;54.346;18.562;2023-07-13T05:18:29;7.70;;;2.60;;
57023;SDS011;42916;54.346;18.562;2023-07-13T05:20:57;5.80;;;2.20;;
57023;SDS011;42916;54.346;18.562;2023-07-13T05:23:25;7.60;;;2.80;;
57023;SDS011;42916;54.346;18.562;2023-07-13T05:25:53;6.20;;;2.30;;
57023;SDS011;42916;54.346;18.562;2023-07-13T05:28:20;6.40;;;2.00;;
57023;SDS011;42916;54.346;18.562;2023-07-13T05:30:48;6.70;;;2.60;;
57023;SDS011;42916;54.346;18.562;2023-07-13T05:33:16;6.30;;;2.60;;
57023;SDS011;42916;54.346;18.562;2023-07-13T05:35:42;4.90;;;2.20;;
57023;SDS011;42916;54.346;18.562;2023-07-13T05:38:09;4.30;;;2.00;;
57023;SDS011;42916;54.346;18.562;2023-07-13T05:40:37;4.60;;;2.20;;
57023;SDS011;42916;54.346;18.562;2023-07-13T05:43:04;6.90;;;2.20;;
57023;SDS011;42916;54.346;18.562;2023-07-13T05:45:30;7.20;;;2.20;;
57023;SDS011;42916;54.346;18.562;2023-07-13T05:47:57;5.20;;;2.10;;
57023;SDS011;42916;54.346;18.562;2023-07-13T05:50:25;6.00;;;2.70;;
57023;SDS011;42916;54.346;18.562;2023-07-13T05:52:52;6.80;;;2.30;;
57023;SDS011;42916;54.346;18.562;2023-07-13T05:55:19;6.60;;;2.60;;
57023;SDS011;42916;54.346;18.562;2023-07-13T05:57:47;3.50;;;1.80;;
57023;SDS011;42916;54.346;18.562;2023-07-13T06:00:14;6.90;;;2.10;;
57023;SDS011;42916;54.346;18.562;2023-07-13T06:02:41;4.90;;;1.90;;
57023;SDS011;42916;54.346;18.562;2023-07-13T06:05:08;5.10;;;2.00;;
57023;SDS011;42916;54.346;18.562;2023-07-13T06:07:36;4.70;;;2.00;;
57023;SDS011;42916;54.346;18.562;2023-07-13T06:10:03;5.40;;;1.90;;
57023;SDS011;42916;54.346;18.562;2023-07-13T06:12:30;4.20;;;1.90;;
57023;SDS011;42916;54.346;18.562;2023-07-13T06:14:56;5.10;;;1.60;;
57023;SDS011;42916;54.346;18.562;2023-07-13T06:17:23;7.20;;;1.90;;
57023;SDS011;42916;54.346;18.562;2023-07-13T06:19:50;4.00;;;1.70;;
57023;SDS011;42916;54.346;18.562;2023-07-13T06:22:17;6.70;;;1.80;;
57023;SDS011;42916;54.346;18.562;2023-07-13T06:24:44;6.10;;;2.00;;
57023;SDS011;42916;54.346;18.562;2023-07-13T06:27:10;4.00;;;1.90;;
57023;SDS011;42916;54.346;18.562;2023-07-13T06:29:37;3.90;;;1.60;;
57023;SDS011;42916;54.346;18.562;2023-07-13T06:32:04;4.90;;;1.80;;
57023;SDS011;42916;54.346;18.562;2023-07-13T06:34:31;6.30;;;2.00;;
57023;SDS011;42916;54.346;18.562;2023-07-13T06:36:58;5.50;;;2.10;;
57023;SDS011;42916;54.346;18.562;2023-07-13T06:39:25;3.60;;;1.70;;
57023;SDS011;42916;54.346;18.562;2023-07-13T06:41:52;5.20;;;1.70;;
57023;SDS011;42916;54.346;18.562;2023-07-13T06:44:18;6.00;;;2.00;;
57023;SDS011;42916;54.346;18.562;2023-07-13T06:46:45;4.00;;;1.90;;
57023;SDS011;42916;54.346;18.562;2023-07-13T06:49:12;5.50;;;2.00;;
57023;SDS011;42916;54.346;18.562;2023-07-13T06:51:39;4.90;;;2.10;;
57023;SDS011;42916;54.346;18.562;2023-07-13T06:54:05;7.00;;;1.80;;
57023;SDS011;42916;54.346;18.562;2023-07-13T06:56:32;4.60;;;1.90;;
57023;SDS011;42916;54.346;18.562;2023-07-13T06:58:59;5.90;;;1.90;;
57023;SDS011;42916;54.346;18.562;2023-07-13T07:01:26;4.90;;;1.90;;
57023;SDS011;42916;54.346;18.562;2023-07-13T07:03:53;2.80;;;1.80;;
57023;SDS011;42916;54.346;18.562;2023-07-13T07:06:20;4.20;;;1.70;;
57023;SDS011;42916;54.346;18.562;2023-07-13T07:08:50;4.80;;;1.50;;
57023;SDS011;42916;54.346;18.562;2023-07-13T07:11:26;4.40;;;1.70;;
57023;SDS011;42916;54.346;18.562;2023-07-13T07:13:53;4.50;;;1.70;;
57023;SDS011;42916;54.346;18.562;2023-07-13T07:16:20;5.70;;;1.80;;
57023;SDS011;42916;54.346;18.562;2023-07-13T07:18:48;3.20;;;1.70;;
57023;SDS011;42916;54.346;18.562;2023-07-13T07:21:15;4.10;;;1.80;;
57023;SDS011;42916;54.346;18.562;2023-07-13T07:23:42;5.10;;;1.80;;
57023;SDS011;42916;54.346;18.562;2023-07-13T07:26:09;3.40;;;1.60;;
57023;SDS011;42916;54.346;18.562;2023-07-13T07:28:36;5.20;;;1.70;;
57023;SDS011;42916;54.346;18.562;2023-07-13T07:31:03;4.40;;;1.70;;
57023;SDS011;42916;54.346;18.562;2023-07-13T07:33:30;3.20;;;1.50;;
57023;SDS011;42916;54.346;18.562;2023-07-13T07:38:25;4.20;;;1.80;;
57023;SDS011;42916;54.346;18.562;2023-07-13T07:40:52;5.20;;;1.70;;
57023;SDS011;42916;54.346;18.562;2023-07-13T07:43:20;4.40;;;1.80;;
57023;SDS011;42916;54.346;18.562;2023-07-13T07:45:46;2.70;;;1.40;;
57023;SDS011;42916;54.346;18.562;2023-07-13T07:48:13;4.90;;;1.60;;
57023;SDS011;42916;54.346;18.562;2023-07-13T07:50:40;4.70;;;1.60;;
57023;SDS011;42916;54.346;18.562;2023-07-13T07:53:07;3.40;;;1.60;;
57023;SDS011;42916;54.346;18.562;2023-07-13T07:55:36;4.40;;;1.60;;
57023;SDS011;42916;54.346;18.562;2023-07-13T07:58:04;5.30;;;1.60;;
57023;SDS011;42916;54.346;18.562;2023-07-13T08:00:31;2.80;;;1.40;;
57023;SDS011;42916;54.346;18.562;2023-07-13T08:02:59;4.60;;;1.30;;
57023;SDS011;42916;54.346;18.562;2023-07-13T08:05:26;5.70;;;1.70;;
57023;SDS011;42916;54.346;18.562;2023-07-13T08:07:53;1.90;;;1.50;;
57023;SDS011;42916;54.346;18.562;2023-07-13T08:10:20;4.70;;;1.40;;
57023;SDS011;42916;54.346;18.562;2023-07-13T08:12:47;5.80;;;1.30;;
57023;SDS011;42916;54.346;18.562;2023-07-13T08:15:15;2.40;;;1.10;;
57023;SDS011;42916;54.346;18.562;2023-07-13T08:17:43;4.00;;;1.30;;
57023;SDS011;42916;54.346;18.562;2023-07-13T08:20:10;5.70;;;1.30;;
57023;SDS011;42916;54.346;18.562;2023-07-13T08:22:37;2.80;;;1.40;;
57023;SDS011;42916;54.346;18.562;2023-07-13T08:25:04;2.70;;;1.20;;
57023;SDS011;42916;54.346;18.562;2023-07-13T08:27:31;4.00;;;1.30;;
57023;SDS011;42916;54.346;18.562;2023-07-13T08:29:59;2.30;;;1.30;;
57023;SDS011;42916;54.346;18.562;2023-07-13T08:32:27;7.20;;;1.50;;
57023;SDS011;42916;54.346;18.562;2023-07-13T08:34:53;3.80;;;1.40;;
57023;SDS011;42916;54.346;18.562;2023-07-13T08:37:20;2.20;;;1.30;;
57023;SDS011;42916;54.346;18.562;2023-07-13T08:39:47;3.90;;;1.40;;
57023;SDS011;42916;54.346;18.562;2023-07-13T08:42:16;3.50;;;1.40;;
57023;SDS011;42916;54.346;18.562;2023-07-13T08:47:30;3.70;;;1.40;;
57023;SDS011;42916;54.346;18.562;2023-07-13T08:50:02;4.00;;;1.30;;
57023;SDS011;42916;54.346;18.562;2023-07-13T08:55:09;3.70;;;1.20;;
57023;SDS011;42916;54.346;18.562;2023-07-13T08:57:41;6.20;;;1.30;;
57023;SDS011;42916;54.346;18.562;2023-07-13T09:00:11;2.40;;;1.30;;
57023;SDS011;42916;54.346;18.562;2023-07-13T09:02:55;2.30;;;1.20;;
57023;SDS011;42916;54.346;18.562;2023-07-13T09:05:30;2.90;;;1.20;;
57023;SDS011;42916;54.346;18.562;2023-07-13T09:08:16;3.50;;;1.10;;
57023;SDS011;42916;54.346;18.562;2023-07-13T09:14:04;3.00;;;1.30;;
57023;SDS011;42916;54.346;18.562;2023-07-13T09:16:37;3.90;;;1.30;;
57023;SDS011;42916;54.346;18.562;2023-07-13T09:19:07;2.70;;;1.20;;
57023;SDS011;42916;54.346;18.562;2023-07-13T09:21:41;3.20;;;1.10;;
57023;SDS011;42916;54.346;18.562;2023-07-13T09:24:27;2.60;;;1.20;;
57023;SDS011;42916;54.346;18.562;2023-07-13T09:26:55;2.60;;;1.30;;
57023;SDS011;42916;54.346;18.562;2023-07-13T09:29:28;4.80;;;2.30;;
57023;SDS011;42916;54.346;18.562;2023-07-13T09:32:00;2.40;;;1.40;;
57023;SDS011;42916;54.346;18.562;2023-07-13T09:34:30;3.80;;;1.10;;
57023;SDS011;42916;54.346;18.562;2023-07-13T09:36:58;1.80;;;1.00;;
57023;SDS011;42916;54.346;18.562;2023-07-13T09:39:39;2.00;;;1.00;;
57023;SDS011;42916;54.346;18.562;2023-07-13T09:42:15;2.40;;;1.30;;
57023;SDS011;42916;54.346;18.562;2023-07-13T09:47:29;2.60;;;1.20;;
57023;SDS011;42916;54.346;18.562;2023-07-13T09:50:02;2.80;;;1.20;;
57023;SDS011;42916;54.346;18.562;2023-07-13T09:52:47;2.80;;;1.20;;
57023;SDS011;42916;54.346;18.562;2023-07-13T09:55:34;1.70;;;1.10;;
57023;SDS011;42916;54.346;18.562;2023-07-13T10:00:59;2.60;;;1.10;;
57023;SDS011;42916;54.346;18.562;2023-07-13T10:03:30;3.40;;;1.40;;
57023;SDS011;42916;54.346;18.562;2023-07-13T10:06:10;2.80;;;1.00;;
57023;SDS011;42916;54.346;18.562;2023-07-13T10:08:40;2.80;;;1.50;;
57023;SDS011;42916;54.346;18.562;2023-07-13T10:11:11;1.40;;;1.10;;
57023;SDS011;42916;54.346;18.562;2023-07-13T10:14:01;5.50;;;1.20;;
57023;SDS011;42916;54.346;18.562;2023-07-13T10:16:30;2.60;;;1.30;;
57023;SDS011;42916;54.346;18.562;2023-07-13T10:19:04;2.70;;;1.30;;
57023;SDS011;42916;54.346;18.562;2023-07-13T10:21:53;1.50;;;1.10;;
57023;SDS011;42916;54.346;18.562;2023-07-13T10:24:33;5.00;;;1.40;;
57023;SDS011;42916;54.346;18.562;2023-07-13T10:29:46;3.90;;;1.40;;
57023;SDS011;42916;54.346;18.562;2023-07-13T10:32:35;3.00;;;1.40;;
57023;SDS011;42916;54.346;18.562;2023-07-13T10:35:02;4.90;;;1.40;;
57023;SDS011;42916;54.346;18.562;2023-07-13T10:37:33;4.70;;;1.20;;
57023;SDS011;42916;54.346;18.562;2023-07-13T10:40:12;2.80;;;1.30;;
57023;SDS011;42916;54.346;18.562;2023-07-13T10:42:44;2.50;;;1.20;;
57023;SDS011;42916;54.346;18.562;2023-07-13T10:45:14;4.10;;;1.40;;
57023;SDS011;42916;54.346;18.562;2023-07-13T10:47:44;2.20;;;1.20;;
57023;SDS011;42916;54.346;18.562;2023-07-13T10:50:15;4.30;;;1.30;;
57023;SDS011;42916;54.346;18.562;2023-07-13T10:52:52;3.70;;;1.20;;
57023;SDS011;42916;54.346;18.562;2023-07-13T10:55:32;2.80;;;1.20;;
57023;SDS011;42916;54.346;18.562;2023-07-13T10:58:21;1.50;;;1.00;;
57023;SDS011;42916;54.346;18.562;2023-07-13T11:01:12;3.00;;;1.10;;
57023;SDS011;42916;54.346;18.562;2023-07-13T11:03:55;1.80;;;1.00;;
57023;SDS011;42916;54.346;18.562;2023-07-13T11:06:32;2.70;;;1.30;;
57023;SDS011;42916;54.346;18.562;2023-07-13T11:09:19;3.70;;;1.20;;
57023;SDS011;42916;54.346;18.562;2023-07-13T11:20:32;5.50;;;2.60;;
57023;SDS011;42916;54.346;18.562;2023-07-13T11:25:42;3.60;;;1.60;;
57023;SDS011;42916;54.346;18.562;2023-07-13T11:30:38;4.20;;;1.30;;
57023;SDS011;42916;54.346;18.562;2023-07-13T11:35:49;5.00;;;1.40;;
57023;SDS011;42916;54.346;18.562;2023-07-13T11:38:22;3.80;;;1.70;;
57023;SDS011;42916;54.346;18.562;2023-07-13T11:40:54;5.30;;;2.00;;
57023;SDS011;42916;54.346;18.562;2023-07-13T11:43:24;3.50;;;1.80;;
57023;SDS011;42916;54.346;18.562;2023-07-13T11:45:52;3.30;;;1.70;;
57023;SDS011;42916;54.346;18.562;2023-07-13T11:48:20;4.10;;;2.00;;
57023;SDS011;42916;54.346;18.562;2023-07-13T11:50:59;5.60;;;2.40;;
57023;SDS011;42916;54.346;18.562;2023-07-13T11:53:29;5.20;;;2.10;;
57023;SDS011;42916;54.346;18.562;2023-07-13T11:56:05;3.50;;;1.90;;
57023;SDS011;42916;54.346;18.562;2023-07-13T11:58:32;2.80;;;1.60;;
57023;SDS011;42916;54.346;18.562;2023-07-13T12:01:00;4.20;;;1.60;;
57023;SDS011;42916;54.346;18.562;2023-07-13T12:03:31;5.00;;;1.90;;
57023;SDS011;42916;54.346;18.562;2023-07-13T12:06:04;6.20;;;2.00;;
57023;SDS011;42916;54.346;18.562;2023-07-13T12:08:37;7.10;;;2.00;;
57023;SDS011;42916;54.346;18.562;2023-07-13T12:11:11;8.30;;;2.10;;
57023;SDS011;42916;54.346;18.562;2023-07-13T12:13:44;5.70;;;1.70;;
57023;SDS011;42916;54.346;18.562;2023-07-13T12:16:14;4.70;;;1.60;;
57023;SDS011;42916;54.346;18.562;2023-07-13T12:19:01;2.80;;;1.30;;
57023;SDS011;42916;54.346;18.562;2023-07-13T12:21:33;6.90;;;1.80;;
57023;SDS011;42916;54.346;18.562;2023-07-13T12:24:12;3.20;;;1.50;;
57023;SDS011;42916;54.346;18.562;2023-07-13T12:26:41;5.20;;;1.90;;
57023;SDS011;42916;54.346;18.562;2023-07-13T12:29:11;4.70;;;1.70;;
57023;SDS011;42916;54.346;18.562;2023-07-13T12:31:43;2.30;;;1.30;;
57023;SDS011;42916;54.346;18.562;2023-07-13T12:34:13;3.70;;;1.90;;
57023;SDS011;42916;54.346;18.562;2023-07-13T12:36:46;5.50;;;1.40;;
57023;SDS011;42916;54.346;18.562;2023-07-13T12:39:20;3.40;;;1.50;;
57023;SDS011;42916;54.346;18.562;2023-07-13T12:42:09;4.40;;;1.80;;
57023;SDS011;42916;54.346;18.562;2023-07-13T12:44:41;7.00;;;1.70;;
57023;SDS011;42916;54.346;18.562;2023-07-13T12:47:10;3.80;;;1.50;;
57023;SDS011;42916;54.346;18.562;2023-07-13T12:49:41;6.00;;;1.40;;
57023;SDS011;42916;54.346;18.562;2023-07-13T12:52:19;3.70;;;1.60;;
57023;SDS011;42916;54.346;18.562;2023-07-13T12:54:54;6.20;;;1.60;;
57023;SDS011;42916;54.346;18.562;2023-07-13T12:57:25;4.40;;;1.30;;
57023;SDS011;42916;54.346;18.562;2023-07-13T12:59:53;4.10;;;1.40;;
57023;SDS011;42916;54.346;18.562;2023-07-13T13:02:28;3.70;;;1.30;;
57023;SDS011;42916;54.346;18.562;2023-07-13T13:05:00;4.20;;;1.30;;
57023;SDS011;42916;54.346;18.562;2023-07-13T13:07:29;5.20;;;1.20;;
57023;SDS011;42916;54.346;18.562;2023-07-13T13:09:56;2.20;;;0.90;;
57023;SDS011;42916;54.346;18.562;2023-07-13T13:12:23;3.40;;;1.10;;
57023;SDS011;42916;54.346;18.562;2023-07-13T13:14:53;2.90;;;1.20;;
57023;SDS011;42916;54.346;18.562;2023-07-13T13:17:21;5.30;;;1.20;;
57023;SDS011;42916;54.346;18.562;2023-07-13T13:19:51;5.10;;;1.00;;
57023;SDS011;42916;54.346;18.562;2023-07-13T13:22:20;2.10;;;0.90;;
57023;SDS011;42916;54.346;18.562;2023-07-13T13:24:48;4.80;;;1.20;;
57023;SDS011;42916;54.346;18.562;2023-07-13T13:27:16;2.40;;;1.10;;
57023;SDS011;42916;54.346;18.562;2023-07-13T13:29:45;4.30;;;1.20;;
57023;SDS011;42916;54.346;18.562;2023-07-13T13:32:13;2.80;;;1.10;;
57023;SDS011;42916;54.346;18.562;2023-07-13T13:42:53;4.90;;;1.30;;
57023;SDS011;42916;54.346;18.562;2023-07-13T13:45:22;3.30;;;1.40;;
57023;SDS011;42916;54.346;18.562;2023-07-13T13:47:50;4.30;;;1.20;;
57023;SDS011;42916;54.346;18.562;2023-07-13T13:50:21;4.50;;;1.30;;
57023;SDS011;42916;54.346;18.562;2023-07-13T13:52:48;5.50;;;1.40;;
57023;SDS011;42916;54.346;18.562;2023-07-13T13:55:16;3.30;;;1.10;;
57023;SDS011;42916;54.346;18.562;2023-07-13T13:57:45;4.00;;;1.60;;
57023;SDS011;42916;54.346;18.562;2023-07-13T14:00:14;3.00;;;1.70;;
57023;SDS011;42916;54.346;18.562;2023-07-13T14:02:44;4.20;;;1.60;;
57023;SDS011;42916;54.346;18.562;2023-07-13T14:05:14;3.80;;;1.60;;
57023;SDS011;42916;54.346;18.562;2023-07-13T14:07:44;4.20;;;1.70;;
57023;SDS011;42916;54.346;18.562;2023-07-13T14:10:12;3.40;;;1.50;;
57023;SDS011;42916;54.346;18.562;2023-07-13T14:12:44;5.30;;;1.60;;
57023;SDS011;42916;54.346;18.562;2023-07-13T14:15:21;3.30;;;1.20;;
57023;SDS011;42916;54.346;18.562;2023-07-13T14:17:51;1.80;;;1.10;;
57023;SDS011;42916;54.346;18.562;2023-07-13T14:20:19;4.40;;;1.30;;
57023;SDS011;42916;54.346;18.562;2023-07-13T14:22:50;2.60;;;0.70;;
57023;SDS011;42916;54.346;18.562;2023-07-13T14:25:19;2.20;;;0.80;;
57023;SDS011;42916;54.346;18.562;2023-07-13T14:27:49;2.50;;;0.80;;
57023;SDS011;42916;54.346;18.562;2023-07-13T14:30:20;3.50;;;0.80;;
57023;SDS011;42916;54.346;18.562;2023-07-13T14:32:48;2.50;;;0.70;;
57023;SDS011;42916;54.346;18.562;2023-07-13T14:35:18;2.00;;;0.80;;
57023;SDS011;42916;54.346;18.562;2023-07-13T14:37:49;1.70;;;0.80;;
57023;SDS011;42916;54.346;18.562;2023-07-13T14:40:26;2.70;;;0.70;;
57023;SDS011;42916;54.346;18.562;2023-07-13T14:42:56;1.90;;;0.70;;
57023;SDS011;42916;54.346;18.562;2023-07-13T14:45:23;5.40;;;0.80;;
57023;SDS011;42916;54.346;18.562;2023-07-13T14:47:50;2.40;;;0.90;;
57023;SDS011;42916;54.346;18.562;2023-07-13T14:50:23;3.10;;;1.00;;
57023;SDS011;42916;54.346;18.562;2023-07-13T14:52:55;3.00;;;1.00;;
57023;SDS011;42916;54.346;18.562;2023-07-13T14:55:22;2.40;;;1.00;;
57023;SDS011;42916;54.346;18.562;2023-07-13T14:57:52;2.00;;;0.80;;
57023;SDS011;42916;54.346;18.562;2023-07-13T15:00:20;5.00;;;1.40;;
57023;SDS011;42916;54.346;18.562;2023-07-13T15:02:53;2.50;;;1.00;;
57023;SDS011;42916;54.346;18.562;2023-07-13T15:05:27;2.70;;;0.70;;
57023;SDS011;42916;54.346;18.562;2023-07-13T15:08:00;5.20;;;1.00;;
57023;SDS011;42916;54.346;18.562;2023-07-13T15:10:30;4.60;;;1.20;;
57023;SDS011;42916;54.346;18.562;2023-07-13T15:13:00;4.20;;;2.90;;
57023;SDS011;42916;54.346;18.562;2023-07-13T15:15:38;3.40;;;0.90;;
57023;SDS011;42916;54.346;18.562;2023-07-13T15:18:11;4.10;;;1.40;;
57023;SDS011;42916;54.346;18.562;2023-07-13T15:20:39;4.10;;;0.90;;
57023;SDS011;42916;54.346;18.562;2023-07-13T15:23:08;3.50;;;0.90;;
57023;SDS011;42916;54.346;18.562;2023-07-13T15:25:36;4.30;;;1.20;;
57023;SDS011;42916;54.346;18.562;2023-07-13T15:28:03;3.40;;;1.00;;
57023;SDS011;42916;54.346;18.562;2023-07-13T15:30:40;2.60;;;0.80;;
57023;SDS011;42916;54.346;18.562;2023-07-13T15:33:13;4.90;;;1.10;;
57023;SDS011;42916;54.346;18.562;2023-07-13T15:35:52;3.40;;;1.30;;
57023;SDS011;42916;54.346;18.562;2023-07-13T15:38:21;5.20;;;0.80;;
57023;SDS011;42916;54.346;18.562;2023-07-13T15:40:54;2.70;;;0.80;;